sensor_id;sensor_type;location;lat;lon;timestamp;P1;durP1;ratioP1;P2;durP2;ratioP2
22236;SDS011;11287;48.122;11.536;2022-11-23T00:00:31;112.65;;;36.38;;
22236;SDS011;11287;48.122;11.536;2022-11-23T00:02:56;103.82;;;33.20;;
22236;SDS011;11287;48.122;11.536;2022-11-23T00:05:22;55.20;;;18.15;;
22236;SDS011;11287;48.122;11.536;2022-11-23T00:07:48;52.38;;;15.65;;
22236;SDS011;11287;48.122;11.536;2022-11-23T00:10:14;35.13;;;11.70;;
22236;SDS011;11287;48.122;11.536;2022-11-23T00:12:40;27.67;;;10.43;;
22236;SDS011;11287;48.122;11.536;2022-11-23T00:15:05;30.17;;;9.68;;
22236;SDS011;11287;48.122;11.536;2022-11-23T00:17:31;19.30;;;7.38;;
22236;SDS011;11287;48.122;11.536;2022-11-23T00:19:57;13.20;;;4.88;;
22236;SDS011;11287;48.122;11.536;2022-11-23T00:22:22;13.35;;;5.57;;
22236;SDS011;11287;48.122;11.536;2022-11-23T00:24:47;13.57;;;4.15;;
22236;SDS011;11287;48.122;11.536;2022-11-23T00:27:13;8.93;;;3.00;;
22236;SDS011;11287;48.122;11.536;2022-11-23T00:29:38;3.38;;;2.60;;
22236;SDS011;11287;48.122;11.536;2022-11-23T00:32:03;6.63;;;2.47;;
22236;SDS011;11287;48.122;11.536;2022-11-23T00:34:29;17.70;;;7.00;;
22236;SDS011;11287;48.122;11.536;2022-11-23T00:36:54;22.23;;;7.63;;
22236;SDS011;11287;48.122;11.536;2022-11-23T00:39:19;16.35;;;5.70;;
22236;SDS011;11287;48.122;11.536;2022-11-23T00:41:45;40.75;;;12.88;;
22236;SDS011;11287;48.122;11.536;2022-11-23T00:44:10;28.60;;;10.70;;
22236;SDS011;11287;48.122;11.536;2022-11-23T00:46:35;44.92;;;14.82;;
22236;SDS011;11287;48.122;11.536;2022-11-23T00:49:01;29.20;;;12.85;;
22236;SDS011;11287;48.122;11.536;2022-11-23T00:51:27;28.88;;;11.23;;
22236;SDS011;11287;48.122;11.536;2022-11-23T00:53:53;22.75;;;9.55;;
22236;SDS011;11287;48.122;11.536;2022-11-23T00:56:19;21.13;;;8.30;;
22236;SDS011;11287;48.122;11.536;2022-11-23T00:58:48;16.40;;;6.85;;
22236;SDS011;11287;48.122;11.536;2022-11-23T01:01:15;16.75;;;6.05;;
22236;SDS011;11287;48.122;11.536;2022-11-23T01:03:43;7.93;;;4.07;;
22236;SDS011;11287;48.122;11.536;2022-11-23T01:06:10;10.32;;;3.97;;
22236;SDS011;11287;48.122;11.536;2022-11-23T01:08:37;5.90;;;3.05;;
22236;SDS011;11287;48.122;11.536;2022-11-23T01:11:04;9.07;;;2.83;;
22236;SDS011;11287;48.122;11.536;2022-11-23T01:13:31;5.68;;;2.80;;
22236;SDS011;11287;48.122;11.536;2022-11-23T01:15:56;4.57;;;2.97;;
22236;SDS011;11287;48.122;11.536;2022-11-23T01:18:22;6.50;;;3.10;;
22236;SDS011;11287;48.122;11.536;2022-11-23T01:20:48;5.22;;;2.70;;
22236;SDS011;11287;48.122;11.536;2022-11-23T01:23:13;5.43;;;3.03;;
22236;SDS011;11287;48.122;11.536;2022-11-23T01:25:39;4.47;;;2.28;;
22236;SDS011;11287;48.122;11.536;2022-11-23T01:28:04;4.10;;;2.72;;
22236;SDS011;11287;48.122;11.536;2022-11-23T01:30:30;5.70;;;2.50;;
22236;SDS011;11287;48.122;11.536;2022-11-23T01:32:55;4.13;;;2.40;;
22236;SDS011;11287;48.122;11.536;2022-11-23T01:35:21;6.00;;;3.03;;
22236;SDS011;11287;48.122;11.536;2022-11-23T01:37:46;8.07;;;2.80;;
22236;SDS011;11287;48.122;11.536;2022-11-23T01:40:11;5.55;;;2.70;;
22236;SDS011;11287;48.122;11.536;2022-11-23T01:42:56;6.60;;;3.13;;
22236;SDS011;11287;48.122;11.536;2022-11-23T01:45:31;7.55;;;2.60;;
22236;SDS011;11287;48.122;11.536;2022-11-23T01:47:56;9.00;;;2.22;;
22236;SDS011;11287;48.122;11.536;2022-11-23T01:50:22;8.32;;;2.78;;
22236;SDS011;11287;48.122;11.536;2022-11-23T01:52:47;5.80;;;2.20;;
22236;SDS011;11287;48.122;11.536;2022-11-23T01:55:12;3.72;;;2.22;;
22236;SDS011;11287;48.122;11.536;2022-11-23T01:57:39;5.97;;;2.42;;
22236;SDS011;11287;48.122;11.536;2022-11-23T02:00:06;4.32;;;2.30;;
22236;SDS011;11287;48.122;11.536;2022-11-23T02:02:32;2.63;;;2.00;;
22236;SDS011;11287;48.122;11.536;2022-11-23T02:04:58;4.05;;;2.80;;
22236;SDS011;11287;48.122;11.536;2022-11-23T02:07:24;5.55;;;2.40;;
22236;SDS011;11287;48.122;11.536;2022-11-23T02:09:50;8.50;;;2.67;;
22236;SDS011;11287;48.122;11.536;2022-11-23T02:12:16;5.40;;;2.60;;
22236;SDS011;11287;48.122;11.536;2022-11-23T02:14:42;4.45;;;2.40;;
22236;SDS011;11287;48.122;11.536;2022-11-23T02:17:08;4.47;;;1.80;;
22236;SDS011;11287;48.122;11.536;2022-11-23T02:21:58;5.55;;;2.22;;
22236;SDS011;11287;48.122;11.536;2022-11-23T02:24:29;6.47;;;2.40;;
22236;SDS011;11287;48.122;11.536;2022-11-23T02:26:55;4.95;;;2.00;;
22236;SDS011;11287;48.122;11.536;2022-11-23T02:29:24;3.83;;;1.70;;
22236;SDS011;11287;48.122;11.536;2022-11-23T02:31:51;3.30;;;1.60;;
22236;SDS011;11287;48.122;11.536;2022-11-23T02:34:17;4.63;;;1.90;;
22236;SDS011;11287;48.122;11.536;2022-11-23T02:39:18;4.53;;;1.80;;
22236;SDS011;11287;48.122;11.536;2022-11-23T02:41:46;3.65;;;1.63;;
22236;SDS011;11287;48.122;11.536;2022-11-23T02:47:07;2.97;;;1.50;;
22236;SDS011;11287;48.122;11.536;2022-11-23T02:49:33;4.30;;;1.95;;
22236;SDS011;11287;48.122;11.536;2022-11-23T02:51:58;7.68;;;2.10;;
22236;SDS011;11287;48.122;11.536;2022-11-23T02:54:24;5.18;;;1.67;;
22236;SDS011;11287;48.122;11.536;2022-11-23T02:56:49;4.50;;;1.80;;
22236;SDS011;11287;48.122;11.536;2022-11-23T02:59:15;7.45;;;1.75;;
22236;SDS011;11287;48.122;11.536;2022-11-23T03:01:40;3.30;;;2.10;;
22236;SDS011;11287;48.122;11.536;2022-11-23T03:04:06;5.05;;;2.00;;
22236;SDS011;11287;48.122;11.536;2022-11-23T03:06:31;3.10;;;1.90;;
22236;SDS011;11287;48.122;11.536;2022-11-23T03:08:57;5.93;;;2.17;;
22236;SDS011;11287;48.122;11.536;2022-11-23T03:11:22;6.68;;;2.00;;
22236;SDS011;11287;48.122;11.536;2022-11-23T03:13:47;3.50;;;1.95;;
22236;SDS011;11287;48.122;11.536;2022-11-23T03:16:13;4.97;;;2.38;;
22236;SDS011;11287;48.122;11.536;2022-11-23T03:18:38;4.38;;;1.92;;
22236;SDS011;11287;48.122;11.536;2022-11-23T03:21:04;3.60;;;1.92;;
22236;SDS011;11287;48.122;11.536;2022-11-23T03:23:32;4.60;;;2.00;;
22236;SDS011;11287;48.122;11.536;2022-11-23T03:25:58;5.07;;;2.30;;
22236;SDS011;11287;48.122;11.536;2022-11-23T03:28:24;5.18;;;2.47;;
22236;SDS011;11287;48.122;11.536;2022-11-23T03:30:49;4.30;;;2.10;;
22236;SDS011;11287;48.122;11.536;2022-11-23T03:33:15;5.97;;;2.25;;
22236;SDS011;11287;48.122;11.536;2022-11-23T03:35:40;4.88;;;1.95;;
22236;SDS011;11287;48.122;11.536;2022-11-23T03:38:06;5.22;;;2.13;;
22236;SDS011;11287;48.122;11.536;2022-11-23T03:40:31;2.78;;;2.28;;
22236;SDS011;11287;48.122;11.536;2022-11-23T03:42:56;5.82;;;2.50;;
22236;SDS011;11287;48.122;11.536;2022-11-23T03:45:21;7.60;;;2.63;;
22236;SDS011;11287;48.122;11.536;2022-11-23T03:47:47;5.72;;;2.35;;
22236;SDS011;11287;48.122;11.536;2022-11-23T03:50:12;6.00;;;2.55;;
22236;SDS011;11287;48.122;11.536;2022-11-23T03:52:38;5.70;;;2.50;;
22236;SDS011;11287;48.122;11.536;2022-11-23T03:55:03;7.10;;;2.53;;
22236;SDS011;11287;48.122;11.536;2022-11-23T03:57:29;3.67;;;2.55;;
22236;SDS011;11287;48.122;11.536;2022-11-23T03:59:54;6.43;;;2.47;;
22236;SDS011;11287;48.122;11.536;2022-11-23T04:02:20;6.72;;;2.50;;
22236;SDS011;11287;48.122;11.536;2022-11-23T04:04:45;4.70;;;2.95;;
22236;SDS011;11287;48.122;11.536;2022-11-23T04:07:10;4.07;;;2.30;;
22236;SDS011;11287;48.122;11.536;2022-11-23T04:09:35;4.80;;;2.65;;
22236;SDS011;11287;48.122;11.536;2022-11-23T04:12:01;5.18;;;2.70;;
22236;SDS011;11287;48.122;11.536;2022-11-23T04:14:26;5.90;;;2.60;;
22236;SDS011;11287;48.122;11.536;2022-11-23T04:16:51;6.82;;;2.90;;
22236;SDS011;11287;48.122;11.536;2022-11-23T04:19:17;10.65;;;3.03;;
22236;SDS011;11287;48.122;11.536;2022-11-23T04:21:42;6.28;;;2.90;;
22236;SDS011;11287;48.122;11.536;2022-11-23T04:24:07;3.83;;;2.65;;
22236;SDS011;11287;48.122;11.536;2022-11-23T04:26:33;6.00;;;2.70;;
22236;SDS011;11287;48.122;11.536;2022-11-23T04:28:58;5.63;;;2.85;;
22236;SDS011;11287;48.122;11.536;2022-11-23T04:31:23;3.85;;;2.53;;
22236;SDS011;11287;48.122;11.536;2022-11-23T04:33:49;7.35;;;3.10;;
22236;SDS011;11287;48.122;11.536;2022-11-23T04:36:14;6.93;;;3.10;;
22236;SDS011;11287;48.122;11.536;2022-11-23T04:38:39;4.50;;;3.13;;
22236;SDS011;11287;48.122;11.536;2022-11-23T04:41:05;5.47;;;3.28;;
22236;SDS011;11287;48.122;11.536;2022-11-23T04:43:30;7.82;;;3.30;;
22236;SDS011;11287;48.122;11.536;2022-11-23T04:45:56;4.50;;;3.42;;
22236;SDS011;11287;48.122;11.536;2022-11-23T04:48:21;7.20;;;3.45;;
22236;SDS011;11287;48.122;11.536;2022-11-23T04:50:47;4.72;;;3.55;;
22236;SDS011;11287;48.122;11.536;2022-11-23T04:53:13;6.28;;;3.80;;
22236;SDS011;11287;48.122;11.536;2022-11-23T04:55:39;5.47;;;4.00;;
22236;SDS011;11287;48.122;11.536;2022-11-23T04:58:05;10.10;;;4.15;;
22236;SDS011;11287;48.122;11.536;2022-11-23T05:00:30;6.65;;;3.88;;
22236;SDS011;11287;48.122;11.536;2022-11-23T05:02:59;8.93;;;4.25;;
22236;SDS011;11287;48.122;11.536;2022-11-23T05:05:25;7.82;;;4.18;;
22236;SDS011;11287;48.122;11.536;2022-11-23T05:07:50;7.07;;;4.18;;
22236;SDS011;11287;48.122;11.536;2022-11-23T05:10:15;6.32;;;3.83;;
22236;SDS011;11287;48.122;11.536;2022-11-23T05:12:41;10.73;;;4.88;;
22236;SDS011;11287;48.122;11.536;2022-11-23T05:15:06;8.88;;;4.20;;
22236;SDS011;11287;48.122;11.536;2022-11-23T05:17:32;8.98;;;4.35;;
22236;SDS011;11287;48.122;11.536;2022-11-23T05:19:58;6.90;;;3.67;;
22236;SDS011;11287;48.122;11.536;2022-11-23T05:22:23;9.15;;;4.40;;
22236;SDS011;11287;48.122;11.536;2022-11-23T05:24:49;9.77;;;4.00;;
22236;SDS011;11287;48.122;11.536;2022-11-23T05:27:14;8.70;;;4.43;;
22236;SDS011;11287;48.122;11.536;2022-11-23T05:29:39;8.60;;;4.10;;
22236;SDS011;11287;48.122;11.536;2022-11-23T05:32:05;8.07;;;4.57;;
22236;SDS011;11287;48.122;11.536;2022-11-23T05:34:30;10.60;;;4.47;;
22236;SDS011;11287;48.122;11.536;2022-11-23T05:36:55;8.52;;;4.22;;
22236;SDS011;11287;48.122;11.536;2022-11-23T05:39:21;10.30;;;4.35;;
22236;SDS011;11287;48.122;11.536;2022-11-23T05:41:47;6.50;;;4.03;;
22236;SDS011;11287;48.122;11.536;2022-11-23T05:44:12;8.43;;;4.18;;
22236;SDS011;11287;48.122;11.536;2022-11-23T05:46:37;7.53;;;4.15;;
22236;SDS011;11287;48.122;11.536;2022-11-23T05:49:03;8.45;;;4.75;;
22236;SDS011;11287;48.122;11.536;2022-11-23T05:51:28;7.97;;;4.32;;
22236;SDS011;11287;48.122;11.536;2022-11-23T05:53:54;9.50;;;4.10;;
22236;SDS011;11287;48.122;11.536;2022-11-23T05:56:21;7.55;;;4.10;;
22236;SDS011;11287;48.122;11.536;2022-11-23T05:58:46;6.15;;;3.97;;
22236;SDS011;11287;48.122;11.536;2022-11-23T06:01:11;4.90;;;3.50;;
22236;SDS011;11287;48.122;11.536;2022-11-23T06:03:37;5.43;;;3.42;;
22236;SDS011;11287;48.122;11.536;2022-11-23T06:06:02;7.32;;;3.53;;
22236;SDS011;11287;48.122;11.536;2022-11-23T06:08:28;9.05;;;4.00;;
22236;SDS011;11287;48.122;11.536;2022-11-23T06:10:53;9.90;;;3.90;;
22236;SDS011;11287;48.122;11.536;2022-11-23T06:13:18;7.10;;;3.70;;
22236;SDS011;11287;48.122;11.536;2022-11-23T06:15:43;8.73;;;3.90;;
22236;SDS011;11287;48.122;11.536;2022-11-23T06:18:09;6.18;;;3.65;;
22236;SDS011;11287;48.122;11.536;2022-11-23T06:20:34;6.75;;;3.80;;
22236;SDS011;11287;48.122;11.536;2022-11-23T06:23:00;9.75;;;3.83;;
22236;SDS011;11287;48.122;11.536;2022-11-23T06:25:25;7.70;;;3.83;;
22236;SDS011;11287;48.122;11.536;2022-11-23T06:27:54;6.38;;;3.92;;
22236;SDS011;11287;48.122;11.536;2022-11-23T06:30:20;14.93;;;3.67;;
22236;SDS011;11287;48.122;11.536;2022-11-23T06:32:46;6.63;;;4.03;;
22236;SDS011;11287;48.122;11.536;2022-11-23T06:35:12;15.10;;;4.22;;
22236;SDS011;11287;48.122;11.536;2022-11-23T06:37:37;7.20;;;3.47;;
22236;SDS011;11287;48.122;11.536;2022-11-23T06:40:02;8.55;;;3.90;;
22236;SDS011;11287;48.122;11.536;2022-11-23T06:42:28;5.70;;;3.78;;
22236;SDS011;11287;48.122;11.536;2022-11-23T06:44:53;4.90;;;3.45;;
22236;SDS011;11287;48.122;11.536;2022-11-23T06:47:19;4.47;;;3.60;;
22236;SDS011;11287;48.122;11.536;2022-11-23T06:49:44;14.13;;;4.32;;
22236;SDS011;11287;48.122;11.536;2022-11-23T06:52:09;7.75;;;4.57;;
22236;SDS011;11287;48.122;11.536;2022-11-23T06:54:35;10.43;;;4.63;;
22236;SDS011;11287;48.122;11.536;2022-11-23T06:57:00;8.02;;;4.05;;
22236;SDS011;11287;48.122;11.536;2022-11-23T06:59:25;8.85;;;3.50;;
22236;SDS011;11287;48.122;11.536;2022-11-23T07:01:51;9.05;;;3.88;;
22236;SDS011;11287;48.122;11.536;2022-11-23T07:04:16;7.68;;;3.35;;
22236;SDS011;11287;48.122;11.536;2022-11-23T07:06:41;8.60;;;3.60;;
22236;SDS011;11287;48.122;11.536;2022-11-23T07:09:07;5.07;;;3.58;;
22236;SDS011;11287;48.122;11.536;2022-11-23T07:11:33;6.65;;;3.90;;
22236;SDS011;11287;48.122;11.536;2022-11-23T07:13:58;10.73;;;4.43;;
22236;SDS011;11287;48.122;11.536;2022-11-23T07:16:24;6.70;;;3.40;;
22236;SDS011;11287;48.122;11.536;2022-11-23T07:18:49;5.57;;;3.22;;
22236;SDS011;11287;48.122;11.536;2022-11-23T07:21:14;6.05;;;3.20;;
22236;SDS011;11287;48.122;11.536;2022-11-23T07:23:40;7.13;;;3.20;;
22236;SDS011;11287;48.122;11.536;2022-11-23T07:26:06;8.18;;;2.90;;
22236;SDS011;11287;48.122;11.536;2022-11-23T07:28:32;6.32;;;2.80;;
22236;SDS011;11287;48.122;11.536;2022-11-23T07:30:57;9.13;;;2.75;;
22236;SDS011;11287;48.122;11.536;2022-11-23T07:33:23;7.97;;;3.05;;
22236;SDS011;11287;48.122;11.536;2022-11-23T07:35:48;6.15;;;3.10;;
22236;SDS011;11287;48.122;11.536;2022-11-23T07:38:13;5.45;;;3.15;;
22236;SDS011;11287;48.122;11.536;2022-11-23T07:40:39;5.70;;;3.67;;
22236;SDS011;11287;48.122;11.536;2022-11-23T07:43:05;4.93;;;3.45;;
22236;SDS011;11287;48.122;11.536;2022-11-23T07:45:31;4.00;;;2.35;;
22236;SDS011;11287;48.122;11.536;2022-11-23T07:48:00;3.95;;;2.35;;
22236;SDS011;11287;48.122;11.536;2022-11-23T07:50:27;6.30;;;2.55;;
22236;SDS011;11287;48.122;11.536;2022-11-23T07:52:52;4.88;;;2.45;;
22236;SDS011;11287;48.122;11.536;2022-11-23T07:55:18;3.40;;;2.50;;
22236;SDS011;11287;48.122;11.536;2022-11-23T07:57:43;7.25;;;2.80;;
22236;SDS011;11287;48.122;11.536;2022-11-23T08:00:09;6.07;;;2.30;;
22236;SDS011;11287;48.122;11.536;2022-11-23T08:02:35;5.78;;;2.03;;
22236;SDS011;11287;48.122;11.536;2022-11-23T08:05:00;7.60;;;3.03;;
22236;SDS011;11287;48.122;11.536;2022-11-23T08:07:25;5.72;;;2.60;;
22236;SDS011;11287;48.122;11.536;2022-11-23T08:09:51;5.93;;;2.53;;
22236;SDS011;11287;48.122;11.536;2022-11-23T08:12:16;5.20;;;2.03;;
22236;SDS011;11287;48.122;11.536;2022-11-23T08:14:41;2.90;;;2.25;;
22236;SDS011;11287;48.122;11.536;2022-11-23T08:17:07;2.97;;;2.35;;
22236;SDS011;11287;48.122;11.536;2022-11-23T08:19:32;4.13;;;2.30;;
22236;SDS011;11287;48.122;11.536;2022-11-23T08:21:57;8.15;;;2.40;;
22236;SDS011;11287;48.122;11.536;2022-11-23T08:24:23;4.30;;;2.40;;
22236;SDS011;11287;48.122;11.536;2022-11-23T08:26:48;5.97;;;2.17;;
22236;SDS011;11287;48.122;11.536;2022-11-23T08:29:14;6.78;;;2.88;;
22236;SDS011;11287;48.122;11.536;2022-11-23T08:31:39;6.00;;;2.70;;
22236;SDS011;11287;48.122;11.536;2022-11-23T08:34:04;3.75;;;2.72;;
22236;SDS011;11287;48.122;11.536;2022-11-23T08:36:30;5.85;;;3.17;;
22236;SDS011;11287;48.122;11.536;2022-11-23T08:38:55;7.72;;;4.00;;
22236;SDS011;11287;48.122;11.536;2022-11-23T08:41:20;5.10;;;2.90;;
22236;SDS011;11287;48.122;11.536;2022-11-23T08:43:46;6.38;;;2.65;;
22236;SDS011;11287;48.122;11.536;2022-11-23T08:46:12;6.07;;;2.58;;
22236;SDS011;11287;48.122;11.536;2022-11-23T08:48:37;5.30;;;2.40;;
22236;SDS011;11287;48.122;11.536;2022-11-23T08:51:03;4.30;;;2.08;;
22236;SDS011;11287;48.122;11.536;2022-11-23T08:53:28;5.78;;;2.40;;
22236;SDS011;11287;48.122;11.536;2022-11-23T08:55:54;3.28;;;2.10;;
22236;SDS011;11287;48.122;11.536;2022-11-23T08:58:19;3.30;;;2.13;;
22236;SDS011;11287;48.122;11.536;2022-11-23T09:00:45;4.35;;;2.15;;
22236;SDS011;11287;48.122;11.536;2022-11-23T09:03:10;17.52;;;3.38;;
22236;SDS011;11287;48.122;11.536;2022-11-23T09:05:36;9.45;;;2.35;;
22236;SDS011;11287;48.122;11.536;2022-11-23T09:08:02;9.30;;;2.20;;
22236;SDS011;11287;48.122;11.536;2022-11-23T09:10:28;13.43;;;2.58;;
22236;SDS011;11287;48.122;11.536;2022-11-23T09:12:53;6.60;;;2.60;;
22236;SDS011;11287;48.122;11.536;2022-11-23T09:15:19;6.93;;;2.20;;
22236;SDS011;11287;48.122;11.536;2022-11-23T09:17:44;7.32;;;1.85;;
22236;SDS011;11287;48.122;11.536;2022-11-23T09:20:10;4.38;;;1.80;;
22236;SDS011;11287;48.122;11.536;2022-11-23T09:22:36;5.43;;;1.88;;
22236;SDS011;11287;48.122;11.536;2022-11-23T09:25:02;5.25;;;2.00;;
22236;SDS011;11287;48.122;11.536;2022-11-23T09:27:28;3.67;;;1.98;;
22236;SDS011;11287;48.122;11.536;2022-11-23T09:29:53;6.95;;;2.33;;
22236;SDS011;11287;48.122;11.536;2022-11-23T09:32:19;4.50;;;1.83;;
22236;SDS011;11287;48.122;11.536;2022-11-23T09:34:44;5.55;;;1.77;;
22236;SDS011;11287;48.122;11.536;2022-11-23T09:37:10;2.92;;;1.40;;
22236;SDS011;11287;48.122;11.536;2022-11-23T09:39:35;7.63;;;2.13;;
22236;SDS011;11287;48.122;11.536;2022-11-23T09:44:54;4.85;;;2.13;;
22236;SDS011;11287;48.122;11.536;2022-11-23T09:47:40;5.28;;;1.73;;
22236;SDS011;11287;48.122;11.536;2022-11-23T09:50:27;5.32;;;1.60;;
22236;SDS011;11287;48.122;11.536;2022-11-23T09:52:54;4.05;;;1.52;;
22236;SDS011;11287;48.122;11.536;2022-11-23T09:55:24;5.28;;;1.10;;
22236;SDS011;11287;48.122;11.536;2022-11-23T09:58:03;2.28;;;1.20;;
22236;SDS011;11287;48.122;11.536;2022-11-23T10:00:34;5.07;;;1.65;;
22236;SDS011;11287;48.122;11.536;2022-11-23T10:03:02;2.97;;;1.00;;
22236;SDS011;11287;48.122;11.536;2022-11-23T10:05:29;4.32;;;1.75;;
22236;SDS011;11287;48.122;11.536;2022-11-23T10:10:57;5.15;;;1.30;;
22236;SDS011;11287;48.122;11.536;2022-11-23T10:13:49;3.38;;;1.30;;
22236;SDS011;11287;48.122;11.536;2022-11-23T10:16:36;3.90;;;1.40;;
22236;SDS011;11287;48.122;11.536;2022-11-23T10:24:48;4.50;;;1.30;;
22236;SDS011;11287;48.122;11.536;2022-11-23T10:27:16;1.58;;;1.05;;
22236;SDS011;11287;48.122;11.536;2022-11-23T10:29:43;4.80;;;2.10;;
22236;SDS011;11287;48.122;11.536;2022-11-23T10:32:15;6.47;;;1.67;;
22236;SDS011;11287;48.122;11.536;2022-11-23T10:35:03;4.60;;;0.98;;
22236;SDS011;11287;48.122;11.536;2022-11-23T10:37:32;4.53;;;0.68;;
22236;SDS011;11287;48.122;11.536;2022-11-23T10:39:58;1.33;;;0.50;;
22236;SDS011;11287;48.122;11.536;2022-11-23T10:42:35;3.13;;;0.90;;
22236;SDS011;11287;48.122;11.536;2022-11-23T10:45:02;2.63;;;0.55;;
22236;SDS011;11287;48.122;11.536;2022-11-23T10:47:37;2.33;;;0.82;;
22236;SDS011;11287;48.122;11.536;2022-11-23T10:50:18;2.78;;;0.70;;
22236;SDS011;11287;48.122;11.536;2022-11-23T10:52:53;4.00;;;0.70;;
22236;SDS011;11287;48.122;11.536;2022-11-23T10:55:25;4.10;;;0.98;;
22236;SDS011;11287;48.122;11.536;2022-11-23T10:57:52;3.50;;;0.90;;
22236;SDS011;11287;48.122;11.536;2022-11-23T11:00:18;1.55;;;0.60;;
22236;SDS011;11287;48.122;11.536;2022-11-23T11:02:48;2.10;;;0.60;;
22236;SDS011;11287;48.122;11.536;2022-11-23T11:08:11;2.85;;;0.85;;
22236;SDS011;11287;48.122;11.536;2022-11-23T11:10:39;4.18;;;0.82;;
22236;SDS011;11287;48.122;11.536;2022-11-23T11:15:51;2.13;;;0.63;;
22236;SDS011;11287;48.122;11.536;2022-11-23T11:18:17;3.42;;;1.05;;
22236;SDS011;11287;48.122;11.536;2022-11-23T11:20:44;4.63;;;0.90;;
22236;SDS011;11287;48.122;11.536;2022-11-23T11:23:16;1.35;;;0.65;;
22236;SDS011;11287;48.122;11.536;2022-11-23T11:25:43;1.50;;;0.85;;
22236;SDS011;11287;48.122;11.536;2022-11-23T11:28:20;3.20;;;1.80;;
22236;SDS011;11287;48.122;11.536;2022-11-23T11:36:27;2.47;;;1.00;;
22236;SDS011;11287;48.122;11.536;2022-11-23T11:38:54;1.55;;;0.88;;
22236;SDS011;11287;48.122;11.536;2022-11-23T11:41:21;3.38;;;0.70;;
22236;SDS011;11287;48.122;11.536;2022-11-23T11:43:57;0.98;;;0.50;;
22236;SDS011;11287;48.122;11.536;2022-11-23T11:46:27;1.50;;;0.50;;
22236;SDS011;11287;48.122;11.536;2022-11-23T11:54:34;3.63;;;1.20;;
22236;SDS011;11287;48.122;11.536;2022-11-23T12:00:09;2.88;;;1.58;;
22236;SDS011;11287;48.122;11.536;2022-11-23T12:02:48;2.95;;;1.08;;
22236;SDS011;11287;48.122;11.536;2022-11-23T12:05:37;3.17;;;0.60;;
22236;SDS011;11287;48.122;11.536;2022-11-23T12:08:17;2.63;;;0.60;;
22236;SDS011;11287;48.122;11.536;2022-11-23T12:10:49;2.35;;;0.63;;
22236;SDS011;11287;48.122;11.536;2022-11-23T12:13:17;1.85;;;0.63;;
22236;SDS011;11287;48.122;11.536;2022-11-23T12:15:46;1.30;;;0.80;;
22236;SDS011;11287;48.122;11.536;2022-11-23T12:34:15;2.40;;;0.50;;
22236;SDS011;11287;48.122;11.536;2022-11-23T12:37:38;1.38;;;0.60;;
22236;SDS011;11287;48.122;11.536;2022-11-23T12:40:22;3.08;;;0.65;;
22236;SDS011;11287;48.122;11.536;2022-11-23T12:43:05;2.55;;;0.73;;
22236;SDS011;11287;48.122;11.536;2022-11-23T12:56:35;1.27;;;0.50;;
22236;SDS011;11287;48.122;11.536;2022-11-23T12:59:14;3.13;;;0.57;;
22236;SDS011;11287;48.122;11.536;2022-11-23T13:01:41;2.40;;;0.68;;
22236;SDS011;11287;48.122;11.536;2022-11-23T13:04:23;6.22;;;0.80;;
22236;SDS011;11287;48.122;11.536;2022-11-23T13:10:12;3.85;;;0.75;;
22236;SDS011;11287;48.122;11.536;2022-11-23T13:12:52;3.05;;;0.80;;
22236;SDS011;11287;48.122;11.536;2022-11-23T13:15:44;3.25;;;0.70;;
22236;SDS011;11287;48.122;11.536;2022-11-23T13:18:40;3.67;;;0.85;;
22236;SDS011;11287;48.122;11.536;2022-11-23T13:21:28;1.60;;;0.38;;
22236;SDS011;11287;48.122;11.536;2022-11-23T13:23:58;2.58;;;0.40;;
22236;SDS011;11287;48.122;11.536;2022-11-23T13:26:24;1.40;;;0.30;;
22236;SDS011;11287;48.122;11.536;2022-11-23T13:28:51;2.67;;;0.43;;
22236;SDS011;11287;48.122;11.536;2022-11-23T13:33:59;1.67;;;0.80;;
22236;SDS011;11287;48.122;11.536;2022-11-23T13:38:54;1.63;;;0.50;;
22236;SDS011;11287;48.122;11.536;2022-11-23T13:44:10;1.58;;;0.30;;
22236;SDS011;11287;48.122;11.536;2022-11-23T13:49:43;2.35;;;0.70;;
22236;SDS011;11287;48.122;11.536;2022-11-23T13:54:58;1.63;;;0.88;;
22236;SDS011;11287;48.122;11.536;2022-11-23T13:57:26;5.43;;;1.55;;
22236;SDS011;11287;48.122;11.536;2022-11-23T13:59:51;4.43;;;2.00;;
22236;SDS011;11287;48.122;11.536;2022-11-23T14:02:27;5.00;;;1.10;;
22236;SDS011;11287;48.122;11.536;2022-11-23T14:05:27;2.10;;;0.90;;
22236;SDS011;11287;48.122;11.536;2022-11-23T14:07:57;2.13;;;1.05;;
22236;SDS011;11287;48.122;11.536;2022-11-23T14:10:25;1.88;;;0.60;;
22236;SDS011;11287;48.122;11.536;2022-11-23T14:13:01;3.35;;;0.82;;
22236;SDS011;11287;48.122;11.536;2022-11-23T14:15:31;2.60;;;0.85;;
22236;SDS011;11287;48.122;11.536;2022-11-23T14:18:05;1.23;;;0.68;;
22236;SDS011;11287;48.122;11.536;2022-11-23T14:26:36;1.77;;;0.70;;
22236;SDS011;11287;48.122;11.536;2022-11-23T14:34:51;4.28;;;0.70;;
22236;SDS011;11287;48.122;11.536;2022-11-23T14:39:55;3.67;;;1.47;;
22236;SDS011;11287;48.122;11.536;2022-11-23T14:42:28;2.05;;;0.88;;
22236;SDS011;11287;48.122;11.536;2022-11-23T14:44:55;2.70;;;1.02;;
22236;SDS011;11287;48.122;11.536;2022-11-23T14:47:25;8.20;;;2.78;;
22236;SDS011;11287;48.122;11.536;2022-11-23T14:49:51;3.90;;;1.10;;
22236;SDS011;11287;48.122;11.536;2022-11-23T14:52:26;2.15;;;1.00;;
22236;SDS011;11287;48.122;11.536;2022-11-23T14:54:54;3.88;;;1.10;;
22236;SDS011;11287;48.122;11.536;2022-11-23T14:57:21;5.28;;;1.48;;
22236;SDS011;11287;48.122;11.536;2022-11-23T14:59:49;7.35;;;0.80;;
22236;SDS011;11287;48.122;11.536;2022-11-23T15:05:27;3.83;;;0.93;;
22236;SDS011;11287;48.122;11.536;2022-11-23T15:13:25;4.60;;;1.38;;
22236;SDS011;11287;48.122;11.536;2022-11-23T15:15:52;2.70;;;1.27;;
22236;SDS011;11287;48.122;11.536;2022-11-23T15:18:33;5.35;;;1.65;;
22236;SDS011;11287;48.122;11.536;2022-11-23T15:23:47;4.43;;;1.50;;
22236;SDS011;11287;48.122;11.536;2022-11-23T15:26:15;5.18;;;1.60;;
22236;SDS011;11287;48.122;11.536;2022-11-23T15:28:42;3.10;;;1.83;;
22236;SDS011;11287;48.122;11.536;2022-11-23T15:31:17;5.43;;;1.70;;
22236;SDS011;11287;48.122;11.536;2022-11-23T15:33:46;3.60;;;1.27;;
22236;SDS011;11287;48.122;11.536;2022-11-23T15:36:12;5.65;;;1.50;;
22236;SDS011;11287;48.122;11.536;2022-11-23T15:38:39;4.80;;;1.67;;
22236;SDS011;11287;48.122;11.536;2022-11-23T15:41:04;3.75;;;1.42;;
22236;SDS011;11287;48.122;11.536;2022-11-23T15:43:30;4.32;;;1.73;;
22236;SDS011;11287;48.122;11.536;2022-11-23T15:45:59;3.33;;;1.58;;
22236;SDS011;11287;48.122;11.536;2022-11-23T15:48:28;2.60;;;1.95;;
22236;SDS011;11287;48.122;11.536;2022-11-23T15:50:59;2.65;;;1.90;;
22236;SDS011;11287;48.122;11.536;2022-11-23T15:53:27;2.42;;;1.80;;
22236;SDS011;11287;48.122;11.536;2022-11-23T15:56:21;5.75;;;2.28;;
22236;SDS011;11287;48.122;11.536;2022-11-23T15:58:51;4.13;;;2.15;;
22236;SDS011;11287;48.122;11.536;2022-11-23T16:01:17;3.15;;;1.75;;
22236;SDS011;11287;48.122;11.536;2022-11-23T16:03:49;4.43;;;2.03;;
22236;SDS011;11287;48.122;11.536;2022-11-23T16:06:18;4.88;;;2.10;;
22236;SDS011;11287;48.122;11.536;2022-11-23T16:08:49;3.75;;;1.88;;
22236;SDS011;11287;48.122;11.536;2022-11-23T16:16:42;3.85;;;2.22;;
22236;SDS011;11287;48.122;11.536;2022-11-23T16:19:19;8.02;;;2.42;;
22236;SDS011;11287;48.122;11.536;2022-11-23T16:21:47;5.25;;;2.50;;
22236;SDS011;11287;48.122;11.536;2022-11-23T16:24:19;6.30;;;1.75;;
22236;SDS011;11287;48.122;11.536;2022-11-23T16:26:46;6.32;;;2.47;;
22236;SDS011;11287;48.122;11.536;2022-11-23T16:29:19;6.03;;;2.63;;
22236;SDS011;11287;48.122;11.536;2022-11-23T16:31:58;3.08;;;1.85;;